sensor_id;sensor_type;location;lat;lon;timestamp;temperature;humidity
21355;DHT22;10835;50.148;19.760;2022-10-16T00:01:21;27.60;46.80
21355;DHT22;10835;50.148;19.760;2022-10-16T00:03:51;27.00;46.80
21355;DHT22;10835;50.148;19.760;2022-10-16T00:06:20;26.50;47.70
21355;DHT22;10835;50.148;19.760;2022-10-16T00:08:50;26.90;47.70
21355;DHT22;10835;50.148;19.760;2022-10-16T00:11:20;27.10;47.80
21355;DHT22;10835;50.148;19.760;2022-10-16T00:13:51;27.30;47.30
21355;DHT22;10835;50.148;19.760;2022-10-16T00:16:20;27.50;47.20
21355;DHT22;10835;50.148;19.760;2022-10-16T00:18:48;27.40;47.10
21355;DHT22;10835;50.148;19.760;2022-10-16T00:21:18;27.50;47.30
21355;DHT22;10835;50.148;19.760;2022-10-16T00:24:07;27.60;47.00
21355;DHT22;10835;50.148;19.760;2022-10-16T00:26:37;27.60;47.00
21355;DHT22;10835;50.148;19.760;2022-10-16T00:29:06;27.40;47.30
21355;DHT22;10835;50.148;19.760;2022-10-16T00:31:35;27.20;47.50
21355;DHT22;10835;50.148;19.760;2022-10-16T00:34:04;27.50;47.30
21355;DHT22;10835;50.148;19.760;2022-10-16T00:36:31;27.10;47.50
21355;DHT22;10835;50.148;19.760;2022-10-16T00:38:59;26.80;47.70
21355;DHT22;10835;50.148;19.760;2022-10-16T00:41:29;26.60;48.10
21355;DHT22;10835;50.148;19.760;2022-10-16T00:43:58;26.40;48.60
21355;DHT22;10835;50.148;19.760;2022-10-16T00:46:29;26.90;48.50
21355;DHT22;10835;50.148;19.760;2022-10-16T00:49:03;26.90;48.20
21355;DHT22;10835;50.148;19.760;2022-10-16T00:51:33;26.90;48.70
21355;DHT22;10835;50.148;19.760;2022-10-16T00:54:03;27.10;48.40
21355;DHT22;10835;50.148;19.760;2022-10-16T00:56:32;26.90;48.60
21355;DHT22;10835;50.148;19.760;2022-10-16T00:59:03;27.10;48.30
21355;DHT22;10835;50.148;19.760;2022-10-16T01:01:34;27.40;48.00
21355;DHT22;10835;50.148;19.760;2022-10-16T01:04:04;27.40;48.10
21355;DHT22;10835;50.148;19.760;2022-10-16T01:06:37;27.00;48.10
21355;DHT22;10835;50.148;19.760;2022-10-16T01:09:13;26.90;48.40
21355;DHT22;10835;50.148;19.760;2022-10-16T01:11:49;26.60;48.60
21355;DHT22;10835;50.148;19.760;2022-10-16T01:14:22;26.50;49.00
21355;DHT22;10835;50.148;19.760;2022-10-16T01:17:00;26.50;49.30
21355;DHT22;10835;50.148;19.760;2022-10-16T01:19:44;26.80;49.10
21355;DHT22;10835;50.148;19.760;2022-10-16T01:22:16;26.50;49.20
21355;DHT22;10835;50.148;19.760;2022-10-16T01:24:48;26.30;49.30
21355;DHT22;10835;50.148;19.760;2022-10-16T01:27:20;26.40;49.40
21355;DHT22;10835;50.148;19.760;2022-10-16T01:29:53;26.30;49.20
21355;DHT22;10835;50.148;19.760;2022-10-16T01:32:28;26.40;49.60
21355;DHT22;10835;50.148;19.760;2022-10-16T01:35:01;26.50;49.50
21355;DHT22;10835;50.148;19.760;2022-10-16T01:37:35;26.40;49.40
21355;DHT22;10835;50.148;19.760;2022-10-16T01:40:07;26.40;49.30
21355;DHT22;10835;50.148;19.760;2022-10-16T01:42:41;26.40;49.40
21355;DHT22;10835;50.148;19.760;2022-10-16T01:45:12;26.50;49.40
21355;DHT22;10835;50.148;19.760;2022-10-16T01:47:42;26.80;49.00
21355;DHT22;10835;50.148;19.760;2022-10-16T01:50:12;26.70;48.80
21355;DHT22;10835;50.148;19.760;2022-10-16T01:52:45;26.50;49.20
21355;DHT22;10835;50.148;19.760;2022-10-16T01:55:17;26.80;49.00
21355;DHT22;10835;50.148;19.760;2022-10-16T01:57:49;26.80;49.10
21355;DHT22;10835;50.148;19.760;2022-10-16T02:00:20;27.10;48.90
21355;DHT22;10835;50.148;19.760;2022-10-16T02:02:52;27.40;48.60
21355;DHT22;10835;50.148;19.760;2022-10-16T02:05:25;27.30;48.40
21355;DHT22;10835;50.148;19.760;2022-10-16T02:07:54;27.50;48.20
21355;DHT22;10835;50.148;19.760;2022-10-16T02:10:26;27.70;47.80
21355;DHT22;10835;50.148;19.760;2022-10-16T02:13:02;27.70;47.50
21355;DHT22;10835;50.148;19.760;2022-10-16T02:15:30;27.80;47.50
21355;DHT22;10835;50.148;19.760;2022-10-16T02:17:58;27.90;47.20
21355;DHT22;10835;50.148;19.760;2022-10-16T02:20:28;28.00;47.00
21355;DHT22;10835;50.148;19.760;2022-10-16T02:22:58;28.00;46.80
21355;DHT22;10835;50.148;19.760;2022-10-16T02:25:31;28.10;46.70
21355;DHT22;10835;50.148;19.760;2022-10-16T02:28:06;28.10;46.30
21355;DHT22;10835;50.148;19.760;2022-10-16T02:30:36;28.10;46.50
21355;DHT22;10835;50.148;19.760;2022-10-16T02:33:09;28.10;46.10
21355;DHT22;10835;50.148;19.760;2022-10-16T02:35:38;27.90;46.20
21355;DHT22;10835;50.148;19.760;2022-10-16T02:38:07;28.00;46.30
21355;DHT22;10835;50.148;19.760;2022-10-16T02:40:37;27.80;46.50
21355;DHT22;10835;50.148;19.760;2022-10-16T02:43:06;27.60;46.70
21355;DHT22;10835;50.148;19.760;2022-10-16T02:45:35;27.40;47.10
21355;DHT22;10835;50.148;19.760;2022-10-16T02:48:04;27.20;47.20
21355;DHT22;10835;50.148;19.760;2022-10-16T02:50:32;27.30;47.20
21355;DHT22;10835;50.148;19.760;2022-10-16T02:53:00;27.20;47.00
21355;DHT22;10835;50.148;19.760;2022-10-16T02:55:28;26.80;47.10
21355;DHT22;10835;50.148;19.760;2022-10-16T02:57:56;26.90;47.50
21355;DHT22;10835;50.148;19.760;2022-10-16T03:00:25;26.90;47.20
21355;DHT22;10835;50.148;19.760;2022-10-16T03:02:53;26.60;47.50
21355;DHT22;10835;50.148;19.760;2022-10-16T03:05:21;26.60;47.70
21355;DHT22;10835;50.148;19.760;2022-10-16T03:07:49;26.70;47.50
21355;DHT22;10835;50.148;19.760;2022-10-16T03:10:19;26.40;48.40
21355;DHT22;10835;50.148;19.760;2022-10-16T03:12:47;26.30;47.90
21355;DHT22;10835;50.148;19.760;2022-10-16T03:15:15;26.20;48.20
21355;DHT22;10835;50.148;19.760;2022-10-16T03:17:44;26.00;48.20
21355;DHT22;10835;50.148;19.760;2022-10-16T03:20:12;25.90;48.30
21355;DHT22;10835;50.148;19.760;2022-10-16T03:22:40;25.70;48.60
21355;DHT22;10835;50.148;19.760;2022-10-16T03:25:08;25.80;48.50
21355;DHT22;10835;50.148;19.760;2022-10-16T03:27:36;25.60;48.60
21355;DHT22;10835;50.148;19.760;2022-10-16T03:30:05;25.70;48.70
21355;DHT22;10835;50.148;19.760;2022-10-16T03:32:33;25.70;48.50
21355;DHT22;10835;50.148;19.760;2022-10-16T03:35:08;25.40;48.80
21355;DHT22;10835;50.148;19.760;2022-10-16T03:37:36;25.40;49.20
21355;DHT22;10835;50.148;19.760;2022-10-16T03:40:05;25.10;49.10
21355;DHT22;10835;50.148;19.760;2022-10-16T03:42:33;25.00;49.60
21355;DHT22;10835;50.148;19.760;2022-10-16T03:45:01;25.00;50.00
21355;DHT22;10835;50.148;19.760;2022-10-16T03:47:29;25.10;50.20
21355;DHT22;10835;50.148;19.760;2022-10-16T03:49:59;25.10;50.00
21355;DHT22;10835;50.148;19.760;2022-10-16T03:52:28;25.10;50.30
21355;DHT22;10835;50.148;19.760;2022-10-16T03:54:57;25.50;50.00
21355;DHT22;10835;50.148;19.760;2022-10-16T03:57:25;25.60;49.60
21355;DHT22;10835;50.148;19.760;2022-10-16T03:59:53;25.70;49.40
21355;DHT22;10835;50.148;19.760;2022-10-16T04:02:21;25.80;49.00
21355;DHT22;10835;50.148;19.760;2022-10-16T04:04:49;25.40;49.20
21355;DHT22;10835;50.148;19.760;2022-10-16T04:07:17;25.20;49.50
21355;DHT22;10835;50.148;19.760;2022-10-16T04:09:47;25.00;49.50
21355;DHT22;10835;50.148;19.760;2022-10-16T04:12:15;24.90;50.00
21355;DHT22;10835;50.148;19.760;2022-10-16T04:14:43;24.70;50.20
21355;DHT22;10835;50.148;19.760;2022-10-16T04:17:10;24.90;50.40
21355;DHT22;10835;50.148;19.760;2022-10-16T04:19:38;25.10;49.80
21355;DHT22;10835;50.148;19.760;2022-10-16T04:22:06;25.10;50.00
21355;DHT22;10835;50.148;19.760;2022-10-16T04:24:34;25.00;49.60
21355;DHT22;10835;50.148;19.760;2022-10-16T04:27:04;24.70;50.10
21355;DHT22;10835;50.148;19.760;2022-10-16T04:29:32;25.20;49.90
21355;DHT22;10835;50.148;19.760;2022-10-16T04:32:00;25.20;49.30
21355;DHT22;10835;50.148;19.760;2022-10-16T04:34:28;25.30;49.20
21355;DHT22;10835;50.148;19.760;2022-10-16T04:36:56;25.30;49.20
21355;DHT22;10835;50.148;19.760;2022-10-16T04:39:24;25.00;49.20
21355;DHT22;10835;50.148;19.760;2022-10-16T04:41:52;24.80;49.40
21355;DHT22;10835;50.148;19.760;2022-10-16T04:44:21;25.10;49.70
21355;DHT22;10835;50.148;19.760;2022-10-16T04:46:50;25.40;49.20
21355;DHT22;10835;50.148;19.760;2022-10-16T04:49:18;25.40;48.60
21355;DHT22;10835;50.148;19.760;2022-10-16T04:51:46;25.30;48.80
21355;DHT22;10835;50.148;19.760;2022-10-16T04:54:14;25.10;48.80
21355;DHT22;10835;50.148;19.760;2022-10-16T04:56:42;24.60;49.30
21355;DHT22;10835;50.148;19.760;2022-10-16T04:59:14;24.60;50.00
21355;DHT22;10835;50.148;19.760;2022-10-16T05:01:43;24.50;49.70
21355;DHT22;10835;50.148;19.760;2022-10-16T05:04:12;24.70;49.70
21355;DHT22;10835;50.148;19.760;2022-10-16T05:06:41;24.60;49.90
21355;DHT22;10835;50.148;19.760;2022-10-16T05:09:10;24.50;50.30
21355;DHT22;10835;50.148;19.760;2022-10-16T05:11:38;24.90;49.90
21355;DHT22;10835;50.148;19.760;2022-10-16T05:14:06;24.40;50.00
21355;DHT22;10835;50.148;19.760;2022-10-16T05:16:34;24.90;49.90
21355;DHT22;10835;50.148;19.760;2022-10-16T05:19:03;24.80;49.60
21355;DHT22;10835;50.148;19.760;2022-10-16T05:21:51;24.70;49.90
21355;DHT22;10835;50.148;19.760;2022-10-16T05:24:19;24.70;49.80
21355;DHT22;10835;50.148;19.760;2022-10-16T05:26:47;24.90;49.70
21355;DHT22;10835;50.148;19.760;2022-10-16T05:29:15;25.20;49.20
21355;DHT22;10835;50.148;19.760;2022-10-16T05:31:43;25.10;49.60
21355;DHT22;10835;50.148;19.760;2022-10-16T05:34:12;25.00;49.60
21355;DHT22;10835;50.148;19.760;2022-10-16T05:36:40;25.30;49.40
21355;DHT22;10835;50.148;19.760;2022-10-16T05:39:08;25.40;49.30
21355;DHT22;10835;50.148;19.760;2022-10-16T05:41:36;25.20;49.40
21355;DHT22;10835;50.148;19.760;2022-10-16T05:44:05;24.80;49.20
21355;DHT22;10835;50.148;19.760;2022-10-16T05:46:33;25.00;50.10
21355;DHT22;10835;50.148;19.760;2022-10-16T05:49:01;24.70;50.20
21355;DHT22;10835;50.148;19.760;2022-10-16T05:51:32;24.60;51.00
21355;DHT22;10835;50.148;19.760;2022-10-16T05:54:00;25.30;50.40
21355;DHT22;10835;50.148;19.760;2022-10-16T05:56:28;25.80;49.80
21355;DHT22;10835;50.148;19.760;2022-10-16T05:58:56;25.80;49.60
21355;DHT22;10835;50.148;19.760;2022-10-16T06:01:24;25.70;49.30
21355;DHT22;10835;50.148;19.760;2022-10-16T06:03:53;24.90;49.90
21355;DHT22;10835;50.148;19.760;2022-10-16T06:06:22;24.70;50.90
21355;DHT22;10835;50.148;19.760;2022-10-16T06:08:53;25.10;50.40
21355;DHT22;10835;50.148;19.760;2022-10-16T06:11:24;25.30;50.70
21355;DHT22;10835;50.148;19.760;2022-10-16T06:13:53;24.90;50.50
21355;DHT22;10835;50.148;19.760;2022-10-16T06:16:23;25.30;50.90
21355;DHT22;10835;50.148;19.760;2022-10-16T06:18:52;25.90;49.90
21355;DHT22;10835;50.148;19.760;2022-10-16T06:21:22;25.70;50.30
21355;DHT22;10835;50.148;19.760;2022-10-16T06:23:53;25.50;50.00
21355;DHT22;10835;50.148;19.760;2022-10-16T06:26:22;25.60;50.30
21355;DHT22;10835;50.148;19.760;2022-10-16T06:28:50;25.40;50.30
21355;DHT22;10835;50.148;19.760;2022-10-16T06:31:19;25.50;50.70
21355;DHT22;10835;50.148;19.760;2022-10-16T06:33:50;25.20;50.80
21355;DHT22;10835;50.148;19.760;2022-10-16T06:36:20;25.50;51.20
21355;DHT22;10835;50.148;19.760;2022-10-16T06:38:48;25.70;51.00
21355;DHT22;10835;50.148;19.760;2022-10-16T06:41:22;25.40;50.90
21355;DHT22;10835;50.148;19.760;2022-10-16T06:43:50;25.50;51.40
21355;DHT22;10835;50.148;19.760;2022-10-16T06:46:21;25.60;51.40
21355;DHT22;10835;50.148;19.760;2022-10-16T06:48:50;26.00;51.40
21355;DHT22;10835;50.148;19.760;2022-10-16T06:51:22;26.60;50.50
21355;DHT22;10835;50.148;19.760;2022-10-16T06:53:52;26.70;49.90
21355;DHT22;10835;50.148;19.760;2022-10-16T06:56:32;26.30;50.00
21355;DHT22;10835;50.148;19.760;2022-10-16T06:59:02;26.30;50.60
21355;DHT22;10835;50.148;19.760;2022-10-16T07:01:30;26.60;50.00
21355;DHT22;10835;50.148;19.760;2022-10-16T07:03:59;26.80;49.60
21355;DHT22;10835;50.148;19.760;2022-10-16T07:06:31;26.70;50.50
21355;DHT22;10835;50.148;19.760;2022-10-16T07:09:02;26.90;49.60
21355;DHT22;10835;50.148;19.760;2022-10-16T07:11:32;26.50;50.00
21355;DHT22;10835;50.148;19.760;2022-10-16T07:14:00;26.80;49.60
21355;DHT22;10835;50.148;19.760;2022-10-16T07:16:30;27.00;49.60
21355;DHT22;10835;50.148;19.760;2022-10-16T07:19:00;26.70;50.00
21355;DHT22;10835;50.148;19.760;2022-10-16T07:21:29;26.80;49.60
21355;DHT22;10835;50.148;19.760;2022-10-16T07:23:59;26.90;49.80
21355;DHT22;10835;50.148;19.760;2022-10-16T07:26:32;27.50;48.20
21355;DHT22;10835;50.148;19.760;2022-10-16T07:29:03;27.60;46.90
21355;DHT22;10835;50.148;19.760;2022-10-16T07:31:31;27.10;48.00
21355;DHT22;10835;50.148;19.760;2022-10-16T07:34:00;27.50;46.60
21355;DHT22;10835;50.148;19.760;2022-10-16T07:36:28;27.80;46.30
21355;DHT22;10835;50.148;19.760;2022-10-16T07:38:56;28.00;45.90
21355;DHT22;10835;50.148;19.760;2022-10-16T07:41:28;28.00;45.10
21355;DHT22;10835;50.148;19.760;2022-10-16T07:43:58;27.60;46.20
21355;DHT22;10835;50.148;19.760;2022-10-16T07:46:27;27.80;46.50
21355;DHT22;10835;50.148;19.760;2022-10-16T07:48:56;27.50;46.00
21355;DHT22;10835;50.148;19.760;2022-10-16T07:51:25;27.90;45.00
21355;DHT22;10835;50.148;19.760;2022-10-16T07:53:53;28.30;44.80
21355;DHT22;10835;50.148;19.760;2022-10-16T07:56:21;28.60;45.20
21355;DHT22;10835;50.148;19.760;2022-10-16T07:58:50;29.00;45.10
21355;DHT22;10835;50.148;19.760;2022-10-16T08:01:20;29.40;44.60
21355;DHT22;10835;50.148;19.760;2022-10-16T08:03:50;29.30;43.70
21355;DHT22;10835;50.148;19.760;2022-10-16T08:06:20;29.50;43.40
21355;DHT22;10835;50.148;19.760;2022-10-16T08:08:54;29.40;43.00
21355;DHT22;10835;50.148;19.760;2022-10-16T08:11:22;28.90;43.90
21355;DHT22;10835;50.148;19.760;2022-10-16T08:13:51;29.00;43.30
21355;DHT22;10835;50.148;19.760;2022-10-16T08:16:20;29.20;43.70
21355;DHT22;10835;50.148;19.760;2022-10-16T08:18:49;29.30;43.70
21355;DHT22;10835;50.148;19.760;2022-10-16T08:21:20;28.50;44.00
21355;DHT22;10835;50.148;19.760;2022-10-16T08:23:50;29.20;44.90
21355;DHT22;10835;50.148;19.760;2022-10-16T08:26:25;29.20;44.10
21355;DHT22;10835;50.148;19.760;2022-10-16T08:28:53;29.40;43.80
21355;DHT22;10835;50.148;19.760;2022-10-16T08:31:23;29.30;43.20
21355;DHT22;10835;50.148;19.760;2022-10-16T08:33:53;28.50;44.20
21355;DHT22;10835;50.148;19.760;2022-10-16T08:36:21;28.50;44.60
21355;DHT22;10835;50.148;19.760;2022-10-16T08:38:49;28.50;44.70
21355;DHT22;10835;50.148;19.760;2022-10-16T08:41:33;28.80;44.40
21355;DHT22;10835;50.148;19.760;2022-10-16T08:44:23;28.60;44.70
21355;DHT22;10835;50.148;19.760;2022-10-16T08:47:00;29.00;44.40
21355;DHT22;10835;50.148;19.760;2022-10-16T08:49:31;29.20;44.00
21355;DHT22;10835;50.148;19.760;2022-10-16T08:51:59;29.70;44.00
21355;DHT22;10835;50.148;19.760;2022-10-16T08:54:30;29.60;43.00
21355;DHT22;10835;50.148;19.760;2022-10-16T08:57:17;30.20;42.70
21355;DHT22;10835;50.148;19.760;2022-10-16T08:59:50;30.50;44.10
21355;DHT22;10835;50.148;19.760;2022-10-16T09:02:30;30.50;43.70
21355;DHT22;10835;50.148;19.760;2022-10-16T09:05:11;30.60;42.20
21355;DHT22;10835;50.148;19.760;2022-10-16T09:07:48;30.90;42.30
21355;DHT22;10835;50.148;19.760;2022-10-16T09:10:28;31.20;42.40
21355;DHT22;10835;50.148;19.760;2022-10-16T09:13:03;31.40;42.40
21355;DHT22;10835;50.148;19.760;2022-10-16T09:15:39;31.50;42.20
21355;DHT22;10835;50.148;19.760;2022-10-16T09:18:15;31.60;41.50
21355;DHT22;10835;50.148;19.760;2022-10-16T09:20:49;31.80;41.10
21355;DHT22;10835;50.148;19.760;2022-10-16T09:23:23;31.70;41.30
21355;DHT22;10835;50.148;19.760;2022-10-16T09:25:54;31.50;40.90
21355;DHT22;10835;50.148;19.760;2022-10-16T09:28:23;31.40;41.20
21355;DHT22;10835;50.148;19.760;2022-10-16T09:30:51;31.40;40.50
21355;DHT22;10835;50.148;19.760;2022-10-16T09:33:29;31.60;40.40
21355;DHT22;10835;50.148;19.760;2022-10-16T09:35:58;31.50;40.60
21355;DHT22;10835;50.148;19.760;2022-10-16T09:38:28;31.50;41.10
21355;DHT22;10835;50.148;19.760;2022-10-16T09:40:57;31.40;40.80
21355;DHT22;10835;50.148;19.760;2022-10-16T09:43:34;31.40;41.00
21355;DHT22;10835;50.148;19.760;2022-10-16T09:46:05;31.60;41.50
21355;DHT22;10835;50.148;19.760;2022-10-16T09:48:37;31.70;41.70
21355;DHT22;10835;50.148;19.760;2022-10-16T09:51:13;31.70;40.50
21355;DHT22;10835;50.148;19.760;2022-10-16T09:53:44;32.00;40.50
21355;DHT22;10835;50.148;19.760;2022-10-16T09:56:22;32.00;40.00
21355;DHT22;10835;50.148;19.760;2022-10-16T09:58:51;32.00;40.60
21355;DHT22;10835;50.148;19.760;2022-10-16T10:01:21;32.20;40.10
21355;DHT22;10835;50.148;19.760;2022-10-16T10:03:56;32.30;41.30
21355;DHT22;10835;50.148;19.760;2022-10-16T10:06:30;32.40;40.40
21355;DHT22;10835;50.148;19.760;2022-10-16T10:09:04;32.60;41.10
21355;DHT22;10835;50.148;19.760;2022-10-16T10:11:37;32.40;40.90
21355;DHT22;10835;50.148;19.760;2022-10-16T10:14:06;32.70;39.70
21355;DHT22;10835;50.148;19.760;2022-10-16T10:16:37;32.90;39.90
21355;DHT22;10835;50.148;19.760;2022-10-16T10:19:14;33.10;38.90
21355;DHT22;10835;50.148;19.760;2022-10-16T10:21:42;32.80;39.60
21355;DHT22;10835;50.148;19.760;2022-10-16T10:24:12;32.90;39.00
21355;DHT22;10835;50.148;19.760;2022-10-16T10:26:47;32.90;39.20
21355;DHT22;10835;50.148;19.760;2022-10-16T10:29:27;32.90;39.40
21355;DHT22;10835;50.148;19.760;2022-10-16T10:32:04;33.20;40.10
21355;DHT22;10835;50.148;19.760;2022-10-16T10:34:46;33.20;39.80
21355;DHT22;10835;50.148;19.760;2022-10-16T10:37:35;33.30;39.20
21355;DHT22;10835;50.148;19.760;2022-10-16T10:40:22;33.40;38.60
21355;DHT22;10835;50.148;19.760;2022-10-16T10:42:56;33.20;38.60
21355;DHT22;10835;50.148;19.760;2022-10-16T10:45:41;33.00;38.70
21355;DHT22;10835;50.148;19.760;2022-10-16T10:48:23;33.20;39.20
21355;DHT22;10835;50.148;19.760;2022-10-16T10:51:03;33.40;39.10
21355;DHT22;10835;50.148;19.760;2022-10-16T10:53:38;33.40;38.70
21355;DHT22;10835;50.148;19.760;2022-10-16T10:56:40;33.40;38.80
21355;DHT22;10835;50.148;19.760;2022-10-16T11:02:12;32.80;39.20
21355;DHT22;10835;50.148;19.760;2022-10-16T11:05:07;32.90;40.50
21355;DHT22;10835;50.148;19.760;2022-10-16T11:07:47;33.10;41.00
21355;DHT22;10835;50.148;19.760;2022-10-16T11:10:21;33.20;39.20
21355;DHT22;10835;50.148;19.760;2022-10-16T11:12:53;33.00;39.60
21355;DHT22;10835;50.148;19.760;2022-10-16T11:15:27;33.30;39.30
21355;DHT22;10835;50.148;19.760;2022-10-16T11:18:00;33.40;39.70
21355;DHT22;10835;50.148;19.760;2022-10-16T11:20:34;33.60;39.90
21355;DHT22;10835;50.148;19.760;2022-10-16T11:23:11;33.70;39.20
21355;DHT22;10835;50.148;19.760;2022-10-16T11:25:43;33.90;39.00
21355;DHT22;10835;50.148;19.760;2022-10-16T11:28:13;33.70;40.20
21355;DHT22;10835;50.148;19.760;2022-10-16T11:30:50;33.80;39.80
21355;DHT22;10835;50.148;19.760;2022-10-16T11:33:27;33.90;39.20
21355;DHT22;10835;50.148;19.760;2022-10-16T11:36:03;33.90;38.30
21355;DHT22;10835;50.148;19.760;2022-10-16T11:38:41;33.90;39.50
21355;DHT22;10835;50.148;19.760;2022-10-16T11:41:18;33.90;38.80
21355;DHT22;10835;50.148;19.760;2022-10-16T11:43:52;33.90;39.60
21355;DHT22;10835;50.148;19.760;2022-10-16T11:46:24;33.90;39.20
21355;DHT22;10835;50.148;19.760;2022-10-16T11:48:59;33.90;39.90
21355;DHT22;10835;50.148;19.760;2022-10-16T11:51:32;33.90;39.30
21355;DHT22;10835;50.148;19.760;2022-10-16T11:54:08;33.90;38.60
21355;DHT22;10835;50.148;19.760;2022-10-16T11:56:40;33.90;39.20
21355;DHT22;10835;50.148;19.760;2022-10-16T11:59:13;33.90;38.80
21355;DHT22;10835;50.148;19.760;2022-10-16T12:01:47;33.90;39.00
21355;DHT22;10835;50.148;19.760;2022-10-16T12:04:22;33.90;38.90
21355;DHT22;10835;50.148;19.760;2022-10-16T12:06:58;34.00;37.70
21355;DHT22;10835;50.148;19.760;2022-10-16T12:09:30;34.10;38.30
21355;DHT22;10835;50.148;19.760;2022-10-16T12:11:59;34.10;38.90
21355;DHT22;10835;50.148;19.760;2022-10-16T12:14:38;34.20;39.60
21355;DHT22;10835;50.148;19.760;2022-10-16T12:17:34;34.30;39.10
21355;DHT22;10835;50.148;19.760;2022-10-16T12:20:21;34.20;40.00
21355;DHT22;10835;50.148;19.760;2022-10-16T12:22:52;34.10;39.10
21355;DHT22;10835;50.148;19.760;2022-10-16T12:25:25;34.10;39.00
21355;DHT22;10835;50.148;19.760;2022-10-16T12:27:56;33.40;38.60
21355;DHT22;10835;50.148;19.760;2022-10-16T12:30:26;33.30;38.20
21355;DHT22;10835;50.148;19.760;2022-10-16T12:33:02;33.10;40.00
21355;DHT22;10835;50.148;19.760;2022-10-16T12:35:33;33.30;38.40
21355;DHT22;10835;50.148;19.760;2022-10-16T12:38:15;33.30;38.60
21355;DHT22;10835;50.148;19.760;2022-10-16T12:40:47;33.10;38.30
21355;DHT22;10835;50.148;19.760;2022-10-16T12:43:35;33.20;38.70
21355;DHT22;10835;50.148;19.760;2022-10-16T12:46:05;33.20;38.90
21355;DHT22;10835;50.148;19.760;2022-10-16T12:48:48;33.10;39.40
21355;DHT22;10835;50.148;19.760;2022-10-16T12:51:35;33.10;38.70
21355;DHT22;10835;50.148;19.760;2022-10-16T12:54:09;33.10;39.40
21355;DHT22;10835;50.148;19.760;2022-10-16T12:56:49;33.10;39.40
21355;DHT22;10835;50.148;19.760;2022-10-16T12:59:28;33.20;39.70
21355;DHT22;10835;50.148;19.760;2022-10-16T13:02:11;33.20;38.40
21355;DHT22;10835;50.148;19.760;2022-10-16T13:04:55;33.40;38.50
21355;DHT22;10835;50.148;19.760;2022-10-16T13:07:42;33.20;39.10
21355;DHT22;10835;50.148;19.760;2022-10-16T13:10:25;33.20;38.20
21355;DHT22;10835;50.148;19.760;2022-10-16T13:13:15;33.20;38.80
21355;DHT22;10835;50.148;19.760;2022-10-16T13:15:59;33.30;38.10
21355;DHT22;10835;50.148;19.760;2022-10-16T13:18:41;33.20;38.80
21355;DHT22;10835;50.148;19.760;2022-10-16T13:21:19;33.30;38.40
21355;DHT22;10835;50.148;19.760;2022-10-16T13:23:54;33.30;38.90
21355;DHT22;10835;50.148;19.760;2022-10-16T13:26:30;33.30;38.70
21355;DHT22;10835;50.148;19.760;2022-10-16T13:29:02;33.50;39.50
21355;DHT22;10835;50.148;19.760;2022-10-16T13:31:32;33.50;39.30
21355;DHT22;10835;50.148;19.760;2022-10-16T13:34:01;33.60;39.40
21355;DHT22;10835;50.148;19.760;2022-10-16T13:36:34;33.70;39.70
21355;DHT22;10835;50.148;19.760;2022-10-16T13:39:12;33.70;38.60
21355;DHT22;10835;50.148;19.760;2022-10-16T13:41:40;33.70;38.70
21355;DHT22;10835;50.148;19.760;2022-10-16T13:44:15;33.40;38.80
21355;DHT22;10835;50.148;19.760;2022-10-16T13:46:44;33.10;39.20
21355;DHT22;10835;50.148;19.760;2022-10-16T13:49:16;32.90;39.80
21355;DHT22;10835;50.148;19.760;2022-10-16T13:51:54;32.50;39.60
21355;DHT22;10835;50.148;19.760;2022-10-16T13:54:23;32.60;39.90
21355;DHT22;10835;50.148;19.760;2022-10-16T13:56:51;32.60;40.30
21355;DHT22;10835;50.148;19.760;2022-10-16T13:59:37;32.50;40.60
21355;DHT22;10835;50.148;19.760;2022-10-16T14:02:14;32.30;40.40
21355;DHT22;10835;50.148;19.760;2022-10-16T14:04:43;32.50;40.70
21355;DHT22;10835;50.148;19.760;2022-10-16T14:07:14;32.50;41.20
21355;DHT22;10835;50.148;19.760;2022-10-16T14:09:49;32.50;40.60
21355;DHT22;10835;50.148;19.760;2022-10-16T14:12:18;32.40;41.00
21355;DHT22;10835;50.148;19.760;2022-10-16T14:14:52;32.60;41.00
21355;DHT22;10835;50.148;19.760;2022-10-16T14:17:23;32.80;40.50
21355;DHT22;10835;50.148;19.760;2022-10-16T14:19:54;32.80;40.80
21355;DHT22;10835;50.148;19.760;2022-10-16T14:22:32;32.90;40.20
21355;DHT22;10835;50.148;19.760;2022-10-16T14:25:00;32.80;40.30
21355;DHT22;10835;50.148;19.760;2022-10-16T14:27:32;32.80;40.30
21355;DHT22;10835;50.148;19.760;2022-10-16T14:30:17;32.70;40.50
21355;DHT22;10835;50.148;19.760;2022-10-16T14:32:54;32.50;40.30
21355;DHT22;10835;50.148;19.760;2022-10-16T14:35:28;32.70;40.70
21355;DHT22;10835;50.148;19.760;2022-10-16T14:38:00;32.80;40.50
21355;DHT22;10835;50.148;19.760;2022-10-16T14:40:30;32.90;40.20
21355;DHT22;10835;50.148;19.760;2022-10-16T14:42:59;33.00;40.40
21355;DHT22;10835;50.148;19.760;2022-10-16T14:45:30;33.10;39.90
21355;DHT22;10835;50.148;19.760;2022-10-16T14:48:01;33.10;39.80
21355;DHT22;10835;50.148;19.760;2022-10-16T14:50:30;33.10;39.90
21355;DHT22;10835;50.148;19.760;2022-10-16T14:52:58;33.10;39.70
21355;DHT22;10835;50.148;19.760;2022-10-16T14:55:27;33.20;39.10
21355;DHT22;10835;50.148;19.760;2022-10-16T14:57:55;32.90;39.90
21355;DHT22;10835;50.148;19.760;2022-10-16T15:00:26;32.90;39.00
21355;DHT22;10835;50.148;19.760;2022-10-16T15:02:58;32.70;39.60
21355;DHT22;10835;50.148;19.760;2022-10-16T15:05:27;32.60;39.60
21355;DHT22;10835;50.148;19.760;2022-10-16T15:07:58;32.20;39.80
21355;DHT22;10835;50.148;19.760;2022-10-16T15:10:28;32.30;40.20
21355;DHT22;10835;50.148;19.760;2022-10-16T15:12:56;32.30;41.00
21355;DHT22;10835;50.148;19.760;2022-10-16T15:15:33;32.30;40.60
21355;DHT22;10835;50.148;19.760;2022-10-16T15:18:04;32.20;41.10
21355;DHT22;10835;50.148;19.760;2022-10-16T15:20:33;32.20;41.20
21355;DHT22;10835;50.148;19.760;2022-10-16T15:23:02;32.10;41.90
21355;DHT22;10835;50.148;19.760;2022-10-16T15:25:33;32.00;41.80
21355;DHT22;10835;50.148;19.760;2022-10-16T15:28:09;31.90;42.20
21355;DHT22;10835;50.148;19.760;2022-10-16T15:30:40;31.80;42.80
21355;DHT22;10835;50.148;19.760;2022-10-16T15:33:14;31.80;43.20
21355;DHT22;10835;50.148;19.760;2022-10-16T15:35:42;31.90;43.20
21355;DHT22;10835;50.148;19.760;2022-10-16T15:38:11;31.60;43.70
21355;DHT22;10835;50.148;19.760;2022-10-16T15:40:40;31.60;43.50
21355;DHT22;10835;50.148;19.760;2022-10-16T15:43:09;31.50;43.50
21355;DHT22;10835;50.148;19.760;2022-10-16T15:45:38;31.40;43.50
21355;DHT22;10835;50.148;19.760;2022-10-16T15:48:08;30.90;43.50